Time;durP1;ratioP1;P1;durP2;ratioP2;P2;SDS_P1;SDS_P2;PMS_P1;PMS_P2;Temp;Humidity;BMP_temperature;BMP_pressure;BME280_temperature;BME280_humidity;BME280_pressure;Samples;Min_cycle;Max_cycle;Signal;HPM_P1;HPM_P2
2023/05/08 00:01:02;;;;;;;13.85;8.00;;;;;;;2.35;58.55;100706.34;7344726;19;20326;-72
2023/05/08 00:03:27;;;;;;;17.45;7.65;;;;;;;2.33;59.47;100707.28;7342735;19;20011;-73
2023/05/08 00:05:54;;;;;;;15.70;7.50;;;;;;;2.31;59.46;100704.69;7340741;19;20470;-72
2023/05/08 00:08:19;;;;;;;17.73;6.72;;;;;;;2.29;59.76;100722.25;7342523;19;20026;-70
2023/05/08 00:10:44;;;;;;;13.35;7.15;;;;;;;2.25;59.84;100714.47;7339678;19;20054;-71
2023/05/08 00:13:09;;;;;;;16.55;7.22;;;;;;;2.23;60.38;100714.50;7338765;19;20015;-71
2023/05/08 00:15:35;;;;;;;15.90;7.25;;;;;;;2.21;60.26;100734.72;7340651;19;20025;-73
2023/05/08 00:17:59;;;;;;;18.15;6.85;;;;;;;2.17;60.66;100718.09;7341232;19;20010;-74
2023/05/08 00:20:25;;;;;;;13.98;7.10;;;;;;;2.12;60.79;100724.38;7343225;19;20014;-72
2023/05/08 00:22:49;;;;;;;17.92;7.13;;;;;;;2.09;60.77;100716.53;7345934;19;20070;-71
2023/05/08 00:25:14;;;;;;;13.95;7.00;;;;;;;2.06;60.68;100717.44;7343661;19;20044;-71
2023/05/08 00:27:39;;;;;;;17.67;7.82;;;;;;;2.05;60.55;100725.38;7341218;19;20010;-71
2023/05/08 00:30:05;;;;;;;23.33;7.18;;;;;;;2.02;61.10;100721.06;7339819;19;20018;-71
2023/05/08 00:32:31;;;;;;;12.02;6.65;;;;;;;2.00;60.93;100730.75;7338144;19;20059;-72
2023/05/08 00:34:55;;;;;;;16.77;7.55;;;;;;;1.98;60.81;100721.13;7337902;19;20007;-72
2023/05/08 00:37:20;;;;;;;11.18;6.18;;;;;;;1.99;60.54;100729.00;7340842;19;20763;-73
2023/05/08 00:39:44;;;;;;;15.23;6.82;;;;;;;2.01;60.51;100726.34;7339170;19;20029;-73
2023/05/08 00:42:09;;;;;;;15.27;7.15;;;;;;;2.01;60.20;100729.84;7337750;19;20390;-71
2023/05/08 00:44:34;;;;;;;14.82;8.23;;;;;;;2.00;60.25;100728.09;7340230;19;20018;-67
2023/05/08 00:46:59;;;;;;;18.83;7.95;;;;;;;2.02;60.37;100735.97;7339715;19;20518;-69
2023/05/08 00:49:24;;;;;;;13.98;7.20;;;;;;;2.01;60.55;100735.09;7339694;19;20026;-69
2023/05/08 00:51:53;;;;;;;15.50;7.32;;;;;;;2.02;60.38;100730.72;7339214;19;20026;-67
2023/05/08 00:54:18;;;;;;;20.75;8.55;;;;;;;1.98;60.75;100731.66;7343669;19;20014;-70
2023/05/08 00:56:44;;;;;;;19.35;7.55;;;;;;;1.97;60.18;100735.19;7343243;19;20343;-73
2023/05/08 00:59:12;;;;;;;16.63;8.18;;;;;;;1.97;60.09;100738.69;7347501;19;20044;-72
2023/05/08 01:01:37;;;;;;;16.48;8.63;;;;;;;1.95;59.84;100747.47;7351357;19;20639;-71
2023/05/08 01:04:03;;;;;;;16.40;7.90;;;;;;;1.89;60.03;100742.34;7350708;19;20321;-79
2023/05/08 01:06:28;;;;;;;12.55;8.02;;;;;;;1.88;60.05;100741.47;7352875;19;20019;-75
2023/05/08 01:08:52;;;;;;;12.43;7.03;;;;;;;1.82;60.01;100737.19;7347451;19;20059;-79
2023/05/08 01:11:39;;;;;;;17.13;7.30;;;;;;;1.88;60.26;100741.47;7352358;19;20011;-76
2023/05/08 01:14:12;;;;;;;17.98;7.10;;;;;;;1.77;60.32;100744.31;7344222;19;20011;-79
2023/05/08 01:17:15;;;;;;;14.65;7.88;;;;;;;1.82;60.18;100745.06;7347549;19;20346;-75
2023/05/08 01:19:42;;;;;;;14.98;7.85;;;;;;;1.74;60.56;100744.34;7347128;19;20014;-73
2023/05/08 01:22:25;;;;;;;13.13;7.40;;;;;;;1.70;60.59;100745.28;7345430;19;20041;-73
2023/05/08 01:25:27;;;;;;;12.52;6.72;;;;;;;1.76;61.02;100736.44;7348039;19;20006;-72
2023/05/08 01:28:04;;;;;;;16.00;7.13;;;;;;;1.69;61.30;100740.94;7349282;19;20025;-72
2023/05/08 01:30:58;;;;;;;18.05;7.85;;;;;;;1.69;61.62;100742.72;7354728;19;20497;-72
2023/05/08 01:33:40;;;;;;;15.30;7.90;;;;;;;1.68;61.45;100749.75;7348921;19;20342;-71
2023/05/08 01:36:28;;;;;;;19.02;7.10;;;;;;;1.63;62.01;100756.81;7350507;19;20014;-71
2023/05/08 01:39:08;;;;;;;22.98;8.15;;;;;;;1.70;61.44;100763.69;7348748;19;20018;-72
2023/05/08 01:41:37;;;;;;;17.60;7.15;;;;;;;1.67;61.77;100768.16;7344462;19;20461;-71
2023/05/08 01:44:12;;;;;;;16.45;6.75;;;;;;;1.66;62.10;100767.28;7344288;19;20082;-72
2023/05/08 01:46:37;;;;;;;10.10;6.80;;;;;;;1.65;61.59;100760.31;7343182;19;20393;-73
2023/05/08 01:49:11;;;;;;;14.10;7.88;;;;;;;1.68;61.90;100747.13;7344584;19;20362;-71
2023/05/08 01:51:47;;;;;;;15.68;7.90;;;;;;;1.73;61.94;100770.66;7347836;19;20063;-72
2023/05/08 01:54:18;;;;;;;12.23;6.60;;;;;;;1.71;61.98;100768.06;7342597;19;20022;-73
2023/05/08 01:56:46;;;;;;;15.60;7.00;;;;;;;1.72;61.62;100769.81;7343266;19;20014;-65
2023/05/08 01:59:18;;;;;;;11.23;6.93;;;;;;;1.78;62.03;100771.47;7346940;19;20357;-65
2023/05/08 02:01:45;;;;;;;16.58;7.00;;;;;;;1.82;61.95;100781.88;7345926;19;20529;-66
2023/05/08 02:04:13;;;;;;;14.32;7.13;;;;;;;1.87;61.91;100780.94;7343690;19;20026;-66
2023/05/08 02:06:39;;;;;;;13.02;7.05;;;;;;;1.89;61.60;100776.53;7344749;19;20035;-66
2023/05/08 02:09:07;;;;;;;10.10;6.80;;;;;;;1.96;61.57;100775.50;7345789;19;20025;-67
2023/05/08 02:11:34;;;;;;;16.83;7.07;;;;;;;1.98;61.35;100768.47;7349061;19;20330;-65
2023/05/08 02:14:00;;;;;;;13.23;6.43;;;;;;;2.07;61.06;100778.81;7343733;19;20131;-67
2023/05/08 02:16:27;;;;;;;12.18;6.93;;;;;;;2.16;60.86;100778.63;7347507;19;20022;-68
2023/05/08 02:18:55;;;;;;;14.13;7.22;;;;;;;2.27;60.54;100786.31;7346918;19;20644;-66
2023/05/08 02:21:22;;;;;;;9.30;5.72;;;;;;;2.36;59.93;100784.41;7346397;19;20018;-66
2023/05/08 02:23:49;;;;;;;15.55;6.93;;;;;;;2.46;60.39;100783.31;7347611;19;20465;-65
2023/05/08 02:26:15;;;;;;;14.05;7.88;;;;;;;2.54;60.25;100791.91;7344657;19;20441;-67
2023/05/08 02:28:40;;;;;;;22.85;7.13;;;;;;;2.61;59.74;100776.84;7346223;19;20014;-71
2023/05/08 02:31:07;;;;;;;19.90;8.20;;;;;;;2.77;59.86;100787.94;7346005;19;20714;-72
2023/05/08 02:33:33;;;;;;;24.38;8.57;;;;;;;2.85;60.18;100786.00;7343712;19;20022;-71
2023/05/08 02:35:59;;;;;;;12.98;7.07;;;;;;;2.97;60.26;100784.84;7343479;19;20048;-72
2023/05/08 02:38:26;;;;;;;14.85;6.63;;;;;;;3.06;59.48;100790.78;7341656;19;20486;-65
2023/05/08 02:40:56;;;;;;;14.10;7.10;;;;;;;3.16;58.12;100799.38;7341414;19;20462;-64
2023/05/08 02:43:22;;;;;;;11.20;7.20;;;;;;;3.20;57.89;100799.25;7345856;19;20037;-63
2023/05/08 02:45:56;;;;;;;10.90;6.43;;;;;;;3.30;57.04;100802.53;7341147;19;20022;-66
2023/05/08 02:48:39;;;;;;;11.40;7.03;;;;;;;3.49;57.12;100800.34;7344343;19;20027;-66
2023/05/08 02:51:38;;;;;;;14.52;6.28;;;;;;;3.64;56.53;100800.81;7344977;19;20347;-65
2023/05/08 02:54:15;;;;;;;11.25;6.55;;;;;;;3.74;55.02;100805.84;7341181;19;20019;-66
2023/05/08 02:56:51;;;;;;;13.23;7.43;;;;;;;3.88;54.02;100799.34;7344795;19;20089;-69
2023/05/08 02:59:28;;;;;;;10.95;6.90;;;;;;;4.03;53.92;100802.50;7342544;19;20025;-73
2023/05/08 03:02:05;;;;;;;12.15;7.40;;;;;;;4.16;52.85;100810.06;7342168;19;20022;-72
2023/05/08 03:04:36;;;;;;;14.98;7.90;;;;;;;4.26;52.85;100805.38;7340891;19;20358;-74
2023/05/08 03:07:03;;;;;;;13.70;7.68;;;;;;;4.34;52.08;100819.25;7340541;19;20021;-74
2023/05/08 03:09:40;;;;;;;15.38;7.75;;;;;;;4.50;52.24;100809.13;7341389;19;20311;-74
2023/05/08 03:12:09;;;;;;;13.43;6.43;;;;;;;4.63;51.78;100824.56;7344726;19;20036;-66
2023/05/08 03:14:42;;;;;;;13.35;7.45;;;;;;;4.78;51.01;100817.13;7342983;19;20118;-65
2023/05/08 03:17:09;;;;;;;16.23;7.32;;;;;;;4.89;50.89;100818.53;7343334;19;20014;-66
2023/05/08 03:19:36;;;;;;;16.17;7.18;;;;;;;5.05;50.37;100826.88;7341303;19;20014;-66
2023/05/08 03:22:05;;;;;;;11.93;7.30;;;;;;;5.19;50.33;100815.91;7342104;19;20476;-68
2023/05/08 03:24:32;;;;;;;13.98;8.35;;;;;;;5.35;49.78;100828.59;7342217;19;20505;-68
2023/05/08 03:26:58;;;;;;;13.95;7.55;;;;;;;5.52;49.54;100819.25;7341657;19;20373;-68
2023/05/08 03:29:24;;;;;;;14.63;7.95;;;;;;;5.70;49.05;100818.66;7341715;19;20022;-68
2023/05/08 03:31:50;;;;;;;14.13;8.63;;;;;;;5.82;48.77;100813.81;7343373;19;20339;-76
2023/05/08 03:34:18;;;;;;;15.63;8.50;;;;;;;5.84;47.92;100827.00;7339505;19;20019;-69
2023/05/08 03:36:43;;;;;;;17.67;8.32;;;;;;;5.83;48.20;100818.22;7342450;19;20486;-67
2023/05/08 03:39:08;;;;;;;17.48;8.38;;;;;;;5.94;48.11;100828.47;7342134;19;20033;-74
2023/05/08 03:41:33;;;;;;;17.30;7.95;;;;;;;6.08;48.08;100826.22;7343450;19;20079;-73
2023/05/08 03:43:58;;;;;;;12.30;7.75;;;;;;;6.28;48.17;100824.66;7344832;19;20014;-74
2023/05/08 03:46:24;;;;;;;12.85;7.50;;;;;;;6.49;47.50;100819.47;7342567;19;20010;-75
2023/05/08 03:48:50;;;;;;;14.98;7.97;;;;;;;6.72;47.20;100823.94;7340353;19;20368;-74
2023/05/08 03:51:17;;;;;;;14.52;7.32;;;;;;;6.93;46.42;100828.44;7339986;19;20345;-73
2023/05/08 03:53:42;;;;;;;13.63;7.10;;;;;;;7.11;46.17;100826.00;7339843;19;20668;-75
2023/05/08 03:56:08;;;;;;;11.77;6.82;;;;;;;7.29;45.92;100841.19;7340001;19;20312;-74
2023/05/08 03:58:58;;;;;;;15.38;7.60;;;;;;;7.52;46.26;100827.91;7342806;19;20014;-73
2023/05/08 04:01:39;;;;;;;17.23;8.25;;;;;;;7.63;44.78;100830.97;7343889;19;20030;-73
2023/05/08 04:04:17;;;;;;;13.32;7.85;;;;;;;7.76;44.97;100830.47;7342310;19;20018;-73
2023/05/08 04:06:54;;;;;;;18.00;9.02;;;;;;;7.80;45.10;100834.72;7340784;19;20015;-74
2023/05/08 04:09:34;;;;;;;13.98;8.00;;;;;;;8.02;44.75;100827.59;7340220;19;20018;-73
2023/05/08 04:12:04;;;;;;;15.27;8.32;;;;;;;8.26;45.03;100821.25;7339746;19;20047;-73
2023/05/08 04:14:42;;;;;;;21.17;8.30;;;;;;;8.53;44.39;100828.97;7339157;19;20031;-74
2023/05/08 04:17:10;;;;;;;15.48;7.70;;;;;;;8.85;44.32;100825.72;7338225;19;20396;-74
2023/05/08 04:19:38;;;;;;;17.00;7.88;;;;;;;9.15;43.72;100828.75;7339230;19;20011;-74
2023/05/08 04:22:09;;;;;;;11.32;6.70;;;;;;;9.50;43.41;100832.41;7339426;19;20010;-73
2023/05/08 04:24:40;;;;;;;15.50;7.95;;;;;;;9.89;42.84;100826.09;7338805;19;20580;-72
2023/05/08 04:27:08;;;;;;;11.63;7.22;;;;;;;10.31;42.37;100823.09;7340263;19;20019;-73
2023/05/08 04:29:33;;;;;;;14.88;6.65;;;;;;;10.75;41.13;100831.41;7339609;19;20038;-72
2023/05/08 04:32:00;;;;;;;13.40;7.50;;;;;;;11.17;39.95;100821.06;7346047;19;20025;-73
2023/05/08 04:34:24;;;;;;;15.68;6.82;;;;;;;11.56;40.19;100817.13;7345358;19;20028;-72
2023/05/08 04:36:50;;;;;;;10.10;5.90;;;;;;;11.94;39.21;100814.97;7345315;19;20014;-74
2023/05/08 04:39:15;;;;;;;17.77;6.65;;;;;;;12.26;37.73;100827.28;7345623;19;20422;-74
2023/05/08 04:41:40;;;;;;;14.00;6.47;;;;;;;12.59;37.32;100816.38;7349384;19;20035;-73
2023/05/08 04:44:05;;;;;;;13.23;6.13;;;;;;;12.91;37.03;100813.50;7351773;19;20092;-72
2023/05/08 04:46:30;;;;;;;7.03;4.85;;;;;;;13.13;36.17;100816.56;7347700;19;20006;-73
2023/05/08 04:48:55;;;;;;;9.13;4.85;;;;;;;13.20;36.03;100817.09;7347071;19;20015;-73
2023/05/08 04:51:20;;;;;;;11.70;5.85;;;;;;;13.33;35.69;100818.00;7347279;19;20019;-74
2023/05/08 04:53:45;;;;;;;11.45;5.75;;;;;;;13.51;35.81;100819.50;7343339;19;20014;-75
2023/05/08 04:56:10;;;;;;;14.18;7.00;;;;;;;13.72;35.28;100817.25;7345411;19;20022;-73
2023/05/08 04:58:34;;;;;;;7.72;5.05;;;;;;;13.96;34.81;100806.72;7345266;19;20011;-73
2023/05/08 05:01:03;;;;;;;7.65;5.10;;;;;;;14.14;34.31;100800.97;7346718;19;20018;-67
2023/05/08 05:03:29;;;;;;;6.75;4.55;;;;;;;14.28;34.50;100813.44;7346818;19;20033;-65
2023/05/08 05:05:58;;;;;;;8.63;4.57;;;;;;;14.46;34.29;100812.19;7345827;19;20007;-65
2023/05/08 05:08:23;;;;;;;7.07;5.40;;;;;;;14.65;34.34;100816.31;7344205;19;20018;-66
2023/05/08 05:10:48;;;;;;;9.63;4.45;;;;;;;14.86;33.73;100814.78;7345561;19;20018;-66
2023/05/08 05:13:13;;;;;;;11.52;5.47;;;;;;;15.10;33.69;100814.88;7344258;19;20018;-65
2023/05/08 05:15:41;;;;;;;13.52;4.72;;;;;;;15.31;32.99;100823.22;7343820;19;20021;-73
2023/05/08 05:18:06;;;;;;;6.55;3.78;;;;;;;15.41;32.90;100817.06;7347164;19;20094;-73
2023/05/08 05:20:31;;;;;;;9.73;4.20;;;;;;;15.65;32.81;100824.34;7345460;19;20015;-73
2023/05/08 05:22:56;;;;;;;6.85;4.25;;;;;;;15.91;32.41;100823.25;7344302;19;20790;-74
2023/05/08 05:25:24;;;;;;;6.82;3.85;;;;;;;16.13;31.65;100839.50;7344521;19;20380;-66
2023/05/08 05:27:49;;;;;;;3.38;3.08;;;;;;;16.28;30.94;100827.56;7344803;19;20022;-66
2023/05/08 05:30:14;;;;;;;5.63;3.13;;;;;;;16.59;30.40;100826.03;7344955;19;20011;-66
2023/05/08 05:32:38;;;;;;;5.82;3.63;;;;;;;16.81;30.24;100824.44;7342878;19;20011;-65
2023/05/08 05:35:04;;;;;;;5.18;3.42;;;;;;;17.09;29.80;100825.78;7343610;19;20477;-65
2023/05/08 05:37:31;;;;;;;5.90;3.45;;;;;;;17.27;29.57;100840.47;7346240;19;20017;-65
2023/05/08 05:39:56;;;;;;;7.60;3.35;;;;;;;17.56;29.37;100836.28;7343504;19;20010;-66
2023/05/08 05:42:22;;;;;;;6.63;3.22;;;;;;;17.96;28.74;100827.59;7341990;19;20010;-67
2023/05/08 05:44:47;;;;;;;6.18;3.17;;;;;;;18.36;28.00;100819.72;7345389;19;20059;-67
2023/05/08 05:47:12;;;;;;;3.70;3.10;;;;;;;18.82;27.47;100822.06;7343634;19;20010;-74
2023/05/08 05:49:45;;;;;;;2.80;2.45;;;;;;;19.26;26.96;100819.97;7342652;19;20018;-73
2023/05/08 05:52:13;;;;;;;4.00;2.33;;;;;;;19.76;26.33;100820.84;7342526;19;20085;-73
2023/05/08 05:54:40;;;;;;;2.35;1.98;;;;;;;20.25;25.57;100817.19;7345835;19;20022;-72
2023/05/08 05:57:05;;;;;;;1.98;1.88;;;;;;;20.73;25.51;100816.31;7347312;19;20056;-74
2023/05/08 05:59:30;;;;;;;2.35;2.15;;;;;;;21.15;24.96;100817.59;7344949;19;20018;-75
2023/05/08 06:01:55;;;;;;;3.08;1.90;;;;;;;21.56;24.16;100815.41;7342044;19;20014;-74
2023/05/08 06:04:19;;;;;;;3.78;2.90;;;;;;;21.97;23.43;100806.72;7343074;19;20011;-74
2023/05/08 06:06:44;;;;;;;1.63;1.52;;;;;;;22.41;23.40;100809.50;7342908;19;20011;-74
2023/05/08 06:09:09;;;;;;;2.25;2.00;;;;;;;22.66;22.39;100813.28;7347370;19;20015;-75
2023/05/08 06:11:33;;;;;;;4.15;2.95;;;;;;;22.91;22.55;100812.44;7348683;19;20049;-73
2023/05/08 06:13:58;;;;;;;3.90;2.70;;;;;;;23.17;21.94;100813.28;7365975;19;20015;-74
2023/05/08 06:16:23;;;;;;;5.68;3.22;;;;;;;23.64;21.99;100811.97;7352744;19;20023;-73
2023/05/08 06:18:48;;;;;;;4.28;3.40;;;;;;;24.12;21.71;100812.09;7345053;19;20006;-75
2023/05/08 06:21:13;;;;;;;6.55;3.97;;;;;;;24.53;21.13;100812.09;7344731;19;20113;-75
2023/05/08 06:23:38;;;;;;;5.88;3.92;;;;;;;24.95;20.91;100815.47;7344048;19;20059;-74
2023/05/08 06:26:02;;;;;;;7.63;4.18;;;;;;;25.45;20.18;100813.44;7344485;19;20022;-74
2023/05/08 06:28:28;;;;;;;5.60;3.97;;;;;;;26.16;19.81;100817.84;7344309;19;20014;-73
2023/05/08 06:30:53;;;;;;;6.05;4.32;;;;;;;26.90;19.47;100811.56;7342934;19;20029;-75
2023/05/08 06:33:18;;;;;;;10.10;4.45;;;;;;;27.67;18.57;100809.31;7342738;19;20034;-66
2023/05/08 06:35:47;;;;;;;8.68;4.53;;;;;;;28.35;18.37;100818.09;7341489;19;20058;-67
2023/05/08 06:38:12;;;;;;;7.43;5.03;;;;;;;29.08;18.18;100814.06;7345427;19;20111;-66
2023/05/08 06:40:41;;;;;;;5.78;4.07;;;;;;;29.22;17.36;100815.84;7342991;19;20022;-66
2023/05/08 06:43:05;;;;;;;7.05;3.70;;;;;;;28.78;17.13;100810.72;7343617;19;20018;-66
2023/05/08 06:45:30;;;;;;;5.30;3.80;;;;;;;28.73;17.10;100804.94;7341509;19;20017;-67
2023/05/08 06:47:55;;;;;;;8.50;3.70;;;;;;;28.61;17.09;100801.03;7342831;19;20784;-67
2023/05/08 06:50:19;;;;;;;5.15;3.20;;;;;;;28.65;16.83;100805.94;7341053;19;20015;-67
2023/05/08 06:52:44;;;;;;;4.95;4.05;;;;;;;28.94;16.96;100799.41;7339711;19;20010;-66
2023/05/08 06:55:09;;;;;;;5.88;3.00;;;;;;;29.20;16.45;100806.97;7339910;19;20018;-67
2023/05/08 06:57:34;;;;;;;4.70;3.45;;;;;;;29.34;16.54;100803.25;7342112;19;20013;-66
2023/05/08 07:00:00;;;;;;;3.30;2.80;;;;;;;29.19;15.96;100800.63;7342010;19;20461;-66
2023/05/08 07:02:25;;;;;;;4.07;3.22;;;;;;;29.12;16.02;100798.91;7341833;19;20018;-67
2023/05/08 07:04:50;;;;;;;8.70;3.33;;;;;;;28.45;16.14;100797.50;7340784;19;20037;-66
2023/05/08 07:07:14;;;;;;;6.97;3.08;;;;;;;27.97;16.32;100787.31;7341017;19;20049;-67
2023/05/08 07:09:40;;;;;;;6.35;2.85;;;;;;;27.39;16.71;100795.47;7341923;19;20022;-66
2023/05/08 07:12:05;;;;;;;4.47;2.78;;;;;;;27.29;17.22;100794.06;7342106;19;20014;-66
2023/05/08 07:14:29;;;;;;;3.97;2.78;;;;;;;26.43;17.60;100792.69;7343621;19;20029;-65
2023/05/08 07:16:54;;;;;;;8.10;3.60;;;;;;;26.33;17.63;100792.97;7341793;19;20042;-65
2023/05/08 07:19:19;;;;;;;3.08;2.78;;;;;;;27.06;17.25;100789.53;7339867;19;20430;-64
2023/05/08 07:21:45;;;;;;;5.75;2.22;;;;;;;26.41;17.25;100788.47;7339985;19;20346;-65
2023/05/08 07:24:10;;;;;;;3.55;2.35;;;;;;;25.44;18.14;100788.03;7341075;19;20438;-65
2023/05/08 07:26:36;;;;;;;4.90;2.28;;;;;;;24.95;18.80;100790.06;7340218;19;20018;-67
2023/05/08 07:29:01;;;;;;;3.83;2.40;;;;;;;24.59;18.76;100784.19;7343480;19;20102;-65
2023/05/08 07:31:26;;;;;;;4.10;2.35;;;;;;;24.00;19.02;100780.72;7343272;19;20094;-74
2023/05/08 07:33:51;;;;;;;6.03;2.67;;;;;;;22.81;19.66;100782.63;7342536;19;20059;-75
2023/05/08 07:36:16;;;;;;;3.10;2.22;;;;;;;21.41;20.42;100781.66;7344561;19;20096;-74
2023/05/08 07:38:41;;;;;;;2.60;1.75;;;;;;;20.14;21.52;100795.66;7339870;19;20025;-74
2023/05/08 07:41:06;;;;;;;2.63;1.88;;;;;;;19.11;22.46;100787.03;7342420;19;20010;-75
2023/05/08 07:43:31;;;;;;;5.30;1.85;;;;;;;18.38;23.03;100791.63;7341873;19;20430;-74
2023/05/08 07:45:57;;;;;;;8.27;1.98;;;;;;;18.27;23.37;100793.53;7340444;19;20362;-75
2023/05/08 07:48:22;;;;;;;4.50;2.38;;;;;;;18.03;23.63;100788.34;7341513;19;20015;-73
2023/05/08 07:50:49;;;;;;;3.30;2.47;;;;;;;18.64;23.58;100792.06;7341581;19;20021;-73
2023/05/08 07:53:13;;;;;;;2.38;1.77;;;;;;;20.07;21.90;100775.59;7338423;19;20033;-73
2023/05/08 07:55:41;;;;;;;2.75;2.22;;;;;;;21.59;21.18;100786.13;7340505;19;20015;-73
2023/05/08 07:58:06;;;;;;;4.32;2.28;;;;;;;23.85;19.31;100782.41;7339916;19;20021;-74
2023/05/08 08:00:31;;;;;;;2.60;2.17;;;;;;;26.01;18.01;100776.78;7343608;19;20089;-74
2023/05/08 08:02:56;;;;;;;1.98;1.88;;;;;;;28.07;17.41;100772.25;7340098;19;20018;-74
2023/05/08 08:05:20;;;;;;;2.20;1.95;;;;;;;29.90;15.51;100770.09;7340343;19;20664;-73
2023/05/08 08:07:45;;;;;;;2.50;2.30;;;;;;;31.74;14.19;100761.59;7340473;19;20018;-72
2023/05/08 08:10:11;;;;;;;5.53;2.83;;;;;;;33.19;13.50;100760.41;7339812;19;20018;-74
2023/05/08 08:12:36;;;;;;;8.88;2.85;;;;;;;34.15;13.01;100756.81;7344431;19;20018;-74
2023/05/08 08:15:01;;;;;;;6.03;2.60;;;;;;;31.44;13.99;100759.63;7341805;19;20014;-65
2023/05/08 08:17:33;;;;;;;6.43;2.72;;;;;;;29.73;15.42;100760.50;7340091;19;20461;-66
2023/05/08 08:19:58;;;;;;;9.98;3.25;;;;;;;27.72;16.21;100762.19;7341242;19;20014;-66
2023/05/08 08:22:24;;;;;;;4.82;2.80;;;;;;;25.65;18.35;100768.31;7344024;19;20027;-66
2023/05/08 08:24:50;;;;;;;5.60;2.50;;;;;;;23.70;19.32;100760.41;7339431;19;20006;-65
2023/05/08 08:27:14;;;;;;;7.30;2.72;;;;;;;22.11;20.58;100758.34;7340242;19;20037;-67
2023/05/08 08:29:39;;;;;;;3.80;2.33;;;;;;;20.83;21.32;100777.31;7340215;19;20034;-66
2023/05/08 08:32:04;;;;;;;4.60;2.17;;;;;;;19.77;22.08;100777.41;7339382;19;20026;-66
2023/05/08 08:34:29;;;;;;;3.67;2.45;;;;;;;18.96;22.67;100778.44;7338296;19;20011;-66
2023/05/08 08:36:54;;;;;;;3.20;2.25;;;;;;;18.34;22.95;100768.56;7339413;19;20006;-65
2023/05/08 08:39:18;;;;;;;4.05;1.85;;;;;;;18.48;23.11;100770.94;7339939;19;20358;-65
2023/05/08 08:41:44;;;;;;;2.30;2.10;;;;;;;20.49;21.60;100763.44;7338197;19;20018;-65
2023/05/08 08:44:10;;;;;;;3.72;2.15;;;;;;;24.12;18.73;100748.56;7339516;19;20030;-65
2023/05/08 08:46:43;;;;;;;2.00;1.90;;;;;;;26.09;16.70;100752.13;7339389;19;20035;-65
2023/05/08 08:49:12;;;;;;;2.00;1.90;;;;;;;26.61;16.51;100749.47;7339315;19;20014;-66
2023/05/08 08:51:45;;;;;;;2.65;1.80;;;;;;;25.86;16.74;100754.84;7339568;19;20075;-66
2023/05/08 08:54:12;;;;;;;5.90;2.40;;;;;;;24.25;18.51;100754.38;7339328;19;20121;-66
2023/05/08 08:56:41;;;;;;;5.43;2.60;;;;;;;22.58;19.33;100758.84;7341068;19;20025;-66
2023/05/08 08:59:08;;;;;;;8.02;2.67;;;;;;;21.04;20.40;100758.13;7339012;19;20014;-68
2023/05/08 09:01:38;;;;;;;6.03;3.85;;;;;;;19.82;22.18;100764.31;7338985;19;20015;-66
2023/05/08 09:04:04;;;;;;;8.88;2.60;;;;;;;18.83;22.69;100776.00;7338822;19;20026;-66
2023/05/08 09:06:34;;;;;;;5.65;2.70;;;;;;;18.10;23.68;100759.84;7338843;19;20043;-66
2023/05/08 09:09:00;;;;;;;10.00;5.18;;;;;;;17.44;24.23;100772.56;7336920;19;20362;-66
2023/05/08 09:11:25;;;;;;;8.38;3.90;;;;;;;16.94;25.27;100777.53;7337007;19;20125;-68
2023/05/08 09:13:51;;;;;;;4.22;2.47;;;;;;;16.52;25.09;100770.97;7337349;19;20022;-65
2023/05/08 09:16:16;;;;;;;7.03;2.60;;;;;;;16.21;25.70;100777.88;7339572;19;20015;-66
2023/05/08 09:18:41;;;;;;;4.93;1.65;;;;;;;16.03;26.58;100765.00;7344213;19;20015;-65
2023/05/08 09:21:07;;;;;;;5.53;2.60;;;;;;;15.96;26.44;100778.91;7343845;19;20031;-65
2023/05/08 09:23:34;;;;;;;5.45;2.92;;;;;;;15.88;26.72;100777.78;7345005;19;20015;-66
2023/05/08 09:25:59;;;;;;;6.57;2.63;;;;;;;15.65;26.08;100774.13;7343872;19;20039;-66
2023/05/08 09:28:25;;;;;;;3.80;2.35;;;;;;;15.40;25.96;100777.72;7345369;19;20010;-66
2023/05/08 09:30:55;;;;;;;8.02;2.22;;;;;;;15.24;26.23;100782.47;7345475;19;20114;-65
2023/05/08 09:33:22;;;;;;;3.05;1.95;;;;;;;14.96;26.42;100780.09;7344889;19;20010;-66
2023/05/08 09:35:47;;;;;;;11.73;3.33;;;;;;;14.67;27.34;100779.47;7345718;19;20015;-67
2023/05/08 09:38:40;;;;;;;23.50;13.07;;;;;;;14.61;27.21;100778.06;7344364;19;20017;-66
2023/05/08 09:41:10;;;;;;;6.40;4.53;;;;;;;14.17;27.05;100783.81;7343197;19;20090;-66
2023/05/08 09:43:35;;;;;;;5.90;2.38;;;;;;;13.86;27.13;100781.47;7345057;19;20026;-67
2023/05/08 09:46:22;;;;;;;4.25;2.70;;;;;;;13.89;27.40;100776.75;7345443;19;20015;-66
2023/05/08 09:48:51;;;;;;;1.75;1.60;;;;;;;13.58;28.12;100783.31;7345176;19;20094;-67
2023/05/08 09:51:16;;;;;;;2.30;2.08;;;;;;;13.50;28.76;100787.44;7343564;19;20473;-67
2023/05/08 09:53:42;;;;;;;7.20;2.67;;;;;;;13.40;28.07;100771.13;7343815;19;20078;-68
2023/05/08 09:56:07;;;;;;;5.72;1.75;;;;;;;13.28;27.81;100777.28;7343602;19;20010;-65
2023/05/08 09:58:40;;;;;;;3.80;2.65;;;;;;;13.33;27.83;100772.47;7343991;19;20038;-68
2023/05/08 10:01:06;;;;;;;3.38;2.33;;;;;;;13.32;28.29;100768.06;7344503;19;20074;-67
2023/05/08 10:03:48;;;;;;;2.83;2.10;;;;;;;13.52;27.79;100762.28;7343373;19;20026;-66
2023/05/08 10:06:13;;;;;;;2.90;2.55;;;;;;;13.52;28.57;100764.97;7350077;19;20007;-68
2023/05/08 10:08:38;;;;;;;2.90;1.75;;;;;;;13.74;28.48;100764.41;7343741;19;20062;-66
2023/05/08 10:11:20;;;;;;;3.60;1.80;;;;;;;14.05;28.07;100761.38;7345483;19;20049;-68
2023/05/08 10:13:45;;;;;;;4.32;1.83;;;;;;;14.07;27.71;100762.13;7344040;19;20085;-66
2023/05/08 10:16:15;;;;;;;5.95;2.08;;;;;;;14.23;27.46;100766.41;7346105;19;20018;-67
2023/05/08 10:18:50;;;;;;;4.68;2.30;;;;;;;14.47;27.44;100759.38;7346304;19;20033;-67
2023/05/08 10:21:16;;;;;;;;;;;;;;;14.89;26.83;100760.88;7345680;19;20054;-67
2023/05/08 10:23:43;;;;;;;1.55;1.45;;;;;;;14.93;26.75;100757.00;7344884;19;19938;-66
2023/05/08 10:26:15;;;;;;;2.55;1.92;;;;;;;15.20;26.74;100756.84;7346761;19;20019;-66
2023/05/08 10:28:56;;;;;;;2.13;1.88;;;;;;;15.61;26.36;100748.41;7345188;19;20477;-66
2023/05/08 10:31:26;;;;;;;6.63;3.35;;;;;;;15.66;26.31;100750.78;7347236;19;20014;-74
2023/05/08 10:33:55;;;;;;;7.95;2.78;;;;;;;15.71;26.51;100753.97;7343005;19;20015;-66
2023/05/08 10:36:25;;;;;;;3.92;2.63;;;;;;;15.67;26.29;100747.13;7343657;19;20019;-66
2023/05/08 10:38:51;;;;;;;2.72;2.25;;;;;;;15.69;26.24;100748.69;7344009;19;20014;-67
2023/05/08 10:41:15;;;;;;;6.10;2.33;;;;;;;15.88;25.90;100745.50;7347238;19;20010;-66
2023/05/08 10:43:42;;;;;;;2.28;2.05;;;;;;;16.19;25.93;100739.47;7341379;19;20106;-66
2023/05/08 10:46:32;;;;;;;2.33;2.10;;;;;;;16.63;25.54;100740.53;7343854;19;20010;-66
2023/05/08 10:49:07;;;;;;;1.85;1.48;;;;;;;16.72;25.53;100734.44;7352363;19;20014;-65
2023/05/08 10:51:48;;;;;;;2.65;2.03;;;;;;;16.82;25.43;100731.84;7353294;19;20007;-66
2023/05/08 10:54:26;;;;;;;2.45;1.92;;;;;;;16.81;25.13;100735.56;7350882;19;20073;-70
2023/05/08 10:57:05;;;;;;;;;;;;;;;17.18;25.30;100730.72;7350491;19;20014;-66
2023/05/08 10:59:35;;;;;;;4.65;2.97;;;;;;;16.76;25.92;100727.81;7347050;19;19915;-67
2023/05/08 11:02:05;;;;;;;5.13;2.75;;;;;;;16.77;26.88;100723.28;7345097;19;20030;-66
2023/05/08 11:04:30;;;;;;;3.13;2.20;;;;;;;16.86;26.34;100720.72;7345898;19;20034;-66
2023/05/08 11:06:57;;;;;;;7.47;2.08;;;;;;;16.96;25.71;100719.00;7348905;19;20014;-67
2023/05/08 11:09:43;;;;;;;4.50;2.22;;;;;;;17.15;25.34;100717.50;7348310;19;20014;-66
2023/05/08 11:12:24;;;;;;;1.65;1.55;;;;;;;17.41;25.25;100729.69;7347621;19;20326;-74
2023/05/08 11:15:03;;;;;;;3.85;2.08;;;;;;;17.33;24.68;100721.38;7350488;19;20087;-75
2023/05/08 11:17:32;;;;;;;3.75;2.20;;;;;;;17.24;24.30;100719.44;7350246;19;20067;-73
2023/05/08 11:20:02;;;;;;;6.85;2.28;;;;;;;17.09;23.66;100710.78;7353651;19;20022;-74
2023/05/08 11:22:32;;;;;;;3.05;2.40;;;;;;;16.95;24.78;100722.66;7347173;19;20014;-75
2023/05/08 11:24:58;;;;;;;7.78;2.13;;;;;;;16.86;24.84;100717.16;7344335;19;20024;-75
2023/05/08 11:27:33;;;;;;;3.15;2.72;;;;;;;16.93;24.14;100713.03;7345394;19;20577;-74
2023/05/08 11:30:33;;;;;;;2.65;1.90;;;;;;;16.84;24.51;100708.34;7348870;19;20453;-75